createdAt,value
2022-11-05T00:00:30.844Z,49.90
2022-11-05T00:03:16.204Z,49.68
2022-11-05T00:06:04.115Z,49.76
2022-11-05T00:08:50.176Z,49.27
2022-11-05T00:11:18.414Z,50.08
2022-11-05T00:14:04.163Z,50.30
2022-11-05T00:16:46.203Z,50.63
2022-11-05T00:19:13.477Z,51.04
2022-11-05T00:21:58.531Z,50.63
2022-11-05T00:24:44.033Z,50.50
2022-11-05T00:27:11.041Z,50.95
2022-11-05T00:29:38.380Z,50.82
2022-11-05T00:32:05.009Z,50.27
2022-11-05T00:34:31.867Z,50.91
2022-11-05T00:36:58.438Z,51.54
2022-11-05T00:39:25.002Z,51.10
2022-11-05T00:42:11.523Z,51.37
2022-11-05T00:44:57.008Z,51.18
2022-11-05T00:47:42.200Z,52.12
2022-11-05T00:50:11.038Z,51.38
2022-11-05T00:52:57.262Z,50.97
2022-11-05T00:55:38.711Z,51.50
2022-11-05T00:58:11.846Z,51.58
2022-11-05T01:00:43.031Z,51.28
2022-11-05T01:03:13.504Z,50.84
2022-11-05T01:05:42.735Z,50.98
2022-11-05T01:08:10.407Z,50.73
2022-11-05T01:10:45.047Z,50.70
2022-11-05T01:13:13.500Z,50.70
2022-11-05T01:15:40.933Z,50.61
2022-11-05T01:18:07.885Z,50.47
2022-11-05T01:20:34.452Z,50.23
2022-11-05T01:23:01.038Z,50.41
2022-11-05T01:25:27.612Z,50.05
2022-11-05T01:27:54.172Z,50.44
2022-11-05T01:30:20.929Z,50.21
2022-11-05T01:32:47.769Z,49.87
2022-11-05T01:35:17.367Z,49.81
2022-11-05T01:37:44.940Z,50.05
2022-11-05T01:40:16.341Z,49.96
2022-11-05T01:42:43.789Z,50.85
2022-11-05T01:45:13.325Z,50.28
2022-11-05T01:47:43.573Z,50.27
2022-11-05T01:50:26.640Z,50.33
2022-11-05T01:53:02.628Z,50.21
2022-11-05T01:55:34.529Z,50.33
2022-11-05T01:58:03.326Z,50.21
2022-11-05T02:00:30.420Z,49.95
2022-11-05T02:02:57.861Z,50.08
2022-11-05T02:05:24.635Z,49.92
2022-11-05T02:07:52.289Z,49.98
2022-11-05T02:10:19.141Z,49.84
2022-11-05T02:12:48.413Z,49.76
2022-11-05T02:15:25.832Z,49.63
2022-11-05T02:18:10.625Z,49.52
2022-11-05T02:20:45.753Z,49.99
2022-11-05T02:23:44.794Z,49.54
2022-11-05T02:26:36.144Z,50.42
2022-11-05T02:29:17.972Z,49.84
2022-11-05T02:32:17.684Z,49.89
2022-11-05T02:35:02.327Z,49.49
2022-11-05T02:37:44.241Z,50.13
2022-11-05T02:40:14.670Z,50.04
2022-11-05T02:42:56.673Z,49.79
2022-11-05T02:45:46.171Z,49.87
2022-11-05T02:48:46.761Z,49.62
2022-11-05T02:51:40.327Z,49.65
2022-11-05T02:54:24.557Z,50.97
2022-11-05T02:56:53.793Z,50.48
2022-11-05T02:59:20.377Z,50.42
2022-11-05T03:01:48.575Z,50.47
2022-11-05T03:04:19.248Z,50.62
2022-11-05T03:07:18.984Z,50.77
2022-11-05T03:10:22.972Z,50.43
2022-11-05T03:13:08.759Z,50.76
2022-11-05T03:15:48.825Z,50.04
2022-11-05T03:18:18.297Z,50.17
2022-11-05T03:21:02.920Z,49.91
2022-11-05T03:23:36.628Z,50.05
2022-11-05T03:26:17.551Z,50.30
2022-11-05T03:28:54.580Z,50.30
2022-11-05T03:31:23.410Z,50.44
2022-11-05T03:33:53.296Z,50.37
2022-11-05T03:36:26.503Z,50.21
2022-11-05T03:38:56.959Z,50.64
2022-11-05T03:41:25.214Z,50.64
2022-11-05T03:43:57.264Z,50.84
2022-11-05T03:46:38.579Z,50.27
2022-11-05T03:49:10.725Z,50.67
2022-11-05T03:51:51.022Z,50.73
2022-11-05T03:54:17.728Z,50.47
2022-11-05T03:56:48.667Z,50.27
2022-11-05T03:59:17.259Z,51.82
2022-11-05T04:01:44.184Z,51.08
2022-11-05T04:04:11.304Z,50.84
2022-11-05T04:06:56.495Z,50.16
2022-11-05T04:09:41.671Z,49.70
2022-11-05T04:12:29.500Z,49.70
2022-11-05T04:14:56.788Z,49.59
2022-11-05T04:17:24.000Z,49.61
2022-11-05T04:20:09.260Z,49.71
2022-11-05T04:22:54.468Z,49.78
2022-11-05T04:25:25.446Z,49.72
2022-11-05T04:28:11.781Z,49.47
2022-11-05T04:30:50.849Z,49.16
2022-11-05T04:33:25.129Z,49.07
2022-11-05T04:36:00.585Z,48.85
2022-11-05T04:38:58.588Z,48.60
2022-11-05T04:45:05.960Z,49.43
2022-11-05T04:48:03.891Z,48.86
2022-11-05T04:50:54.237Z,48.75
2022-11-05T04:53:33.547Z,49.18
2022-11-05T04:56:27.776Z,49.68
2022-11-05T04:59:00.237Z,50.38
2022-11-05T05:01:41.822Z,50.67
2022-11-05T05:04:48.507Z,50.05
2022-11-05T05:07:34.474Z,49.68
2022-11-05T05:10:24.917Z,49.41
2022-11-05T05:14:07.083Z,49.18
2022-11-05T05:17:21.751Z,49.74
2022-11-05T05:25:00.700Z,49.81
2022-11-05T05:31:53.309Z,49.91
2022-11-05T05:35:05.175Z,49.75
2022-11-05T05:38:14.606Z,49.31
2022-11-05T05:41:13.883Z,49.33
2022-11-05T05:48:10.086Z,49.15
2022-11-05T05:50:55.359Z,48.88
2022-11-05T05:53:40.306Z,48.66
2022-11-05T05:56:11.647Z,48.72
2022-11-05T05:58:54.619Z,48.75
2022-11-05T06:01:31.301Z,48.96
2022-11-05T06:03:58.131Z,48.72
2022-11-05T06:06:28.021Z,48.52
2022-11-05T06:09:04.294Z,48.15
2022-11-05T06:11:40.253Z,48.06
2022-11-05T06:14:10.483Z,47.87
2022-11-05T06:16:39.130Z,48.03
2022-11-05T06:19:08.984Z,47.92
2022-11-05T06:21:35.918Z,47.71
2022-11-05T06:24:04.052Z,48.04
2022-11-05T06:26:31.105Z,47.95
2022-11-05T06:28:57.745Z,48.02
2022-11-05T06:31:24.849Z,47.35
2022-11-05T06:33:51.533Z,47.26
2022-11-05T06:36:19.479Z,47.16
2022-11-05T06:38:46.727Z,47.23
2022-11-05T06:41:13.398Z,47.17
2022-11-05T06:43:40.645Z,47.40
2022-11-05T06:46:07.368Z,47.46
2022-11-05T06:48:34.787Z,47.28
2022-11-05T06:51:12.013Z,46.99
2022-11-05T06:53:41.072Z,47.39
2022-11-05T06:56:09.879Z,47.54
2022-11-05T06:58:36.917Z,47.60
2022-11-05T07:01:10.817Z,47.56
2022-11-05T07:03:38.169Z,47.43
2022-11-05T07:06:06.820Z,47.61
2022-11-05T07:08:34.953Z,47.11
2022-11-05T07:11:02.025Z,47.66
2022-11-05T07:13:29.643Z,47.95
2022-11-05T07:15:59.520Z,47.81
2022-11-05T07:18:26.737Z,47.34
2022-11-05T07:20:53.375Z,47.84
2022-11-05T07:23:20.248Z,47.43
2022-11-05T07:25:46.894Z,47.86
2022-11-05T07:28:14.556Z,48.34
2022-11-05T07:30:41.426Z,47.87
2022-11-05T07:33:08.815Z,48.74
2022-11-05T07:35:36.018Z,49.09
2022-11-05T07:38:03.735Z,48.86
2022-11-05T07:40:30.562Z,48.59
2022-11-05T07:43:00.129Z,48.68
2022-11-05T07:45:29.044Z,48.75
2022-11-05T07:48:00.649Z,48.91
2022-11-05T07:50:31.302Z,48.45
2022-11-05T07:53:02.665Z,48.68
2022-11-05T07:55:30.063Z,50.21
2022-11-05T07:57:56.959Z,47.84
2022-11-05T08:00:25.091Z,47.85
2022-11-05T08:03:07.344Z,44.64
2022-11-05T08:05:41.005Z,43.14
2022-11-05T08:08:09.478Z,42.22
2022-11-05T08:10:37.661Z,40.93
2022-11-05T08:13:05.482Z,39.55
2022-11-05T08:15:32.457Z,38.34
2022-11-05T08:18:03.487Z,36.86
2022-11-05T08:20:33.417Z,36.17
2022-11-05T08:23:07.918Z,34.98
2022-11-05T08:25:49.043Z,35.18
2022-11-05T08:28:15.841Z,34.65
2022-11-05T08:30:42.689Z,35.04
2022-11-05T08:33:12.740Z,33.99
2022-11-05T08:35:40.335Z,34.00
2022-11-05T08:38:09.816Z,33.08
2022-11-05T08:40:36.855Z,33.05
2022-11-05T08:43:06.862Z,33.59
2022-11-05T08:45:39.701Z,33.10
2022-11-05T08:48:12.340Z,32.79
2022-11-05T08:50:43.190Z,31.84
2022-11-05T08:53:12.971Z,31.98
2022-11-05T08:55:43.859Z,32.05
2022-11-05T08:58:12.693Z,32.02
2022-11-05T09:00:53.089Z,32.06
2022-11-05T09:03:22.586Z,31.74
2022-11-05T09:05:49.434Z,32.87
2022-11-05T09:08:18.402Z,32.50
2022-11-05T09:10:46.537Z,32.62
2022-11-05T09:13:18.906Z,33.42
2022-11-05T09:15:50.343Z,32.33
2022-11-05T09:18:17.866Z,32.35
2022-11-05T09:20:45.118Z,32.15
2022-11-05T09:23:14.730Z,32.50
2022-11-05T09:25:42.061Z,32.08
2022-11-05T09:28:08.854Z,32.54
2022-11-05T09:30:38.909Z,32.48
2022-11-05T09:33:05.530Z,33.89
2022-11-05T09:35:32.139Z,33.77
2022-11-05T09:38:01.066Z,33.89
2022-11-05T09:40:32.513Z,33.96
2022-11-05T09:43:00.601Z,34.03
2022-11-05T09:45:28.697Z,32.97
2022-11-05T09:48:05.056Z,32.80
2022-11-05T09:50:40.488Z,34.18
2022-11-05T09:53:07.880Z,33.85
2022-11-05T09:55:41.933Z,34.73
2022-11-05T09:58:28.387Z,35.75
2022-11-05T10:00:55.619Z,35.61
2022-11-05T10:03:23.864Z,34.86
2022-11-05T10:05:58.200Z,34.81
2022-11-05T10:08:29.713Z,34.32
2022-11-05T10:11:03.083Z,34.18
2022-11-05T10:13:37.684Z,35.65
2022-11-05T10:16:29.433Z,36.85
2022-11-05T10:19:06.392Z,36.23
2022-11-05T10:22:04.477Z,37.85
2022-11-05T10:24:21.161Z,36.66
2022-11-05T10:26:50.736Z,37.95
2022-11-05T10:29:27.457Z,38.53
2022-11-05T10:31:55.949Z,38.22
2022-11-05T10:34:26.368Z,37.80
2022-11-05T10:36:54.343Z,38.04
2022-11-05T10:39:23.290Z,37.04
2022-11-05T10:42:08.549Z,37.06
2022-11-05T10:44:48.539Z,38.68
2022-11-05T10:47:46.171Z,39.11
2022-11-05T10:50:23.296Z,37.79
2022-11-05T10:53:16.832Z,37.36
2022-11-05T10:55:51.537Z,37.72
2022-11-05T10:58:21.181Z,37.55
2022-11-05T11:00:53.900Z,37.26
2022-11-05T11:03:38.796Z,37.75
2022-11-05T11:06:27.392Z,39.03
2022-11-05T11:08:56.955Z,39.11
2022-11-05T11:11:36.100Z,40.12
2022-11-05T11:14:05.153Z,40.87
2022-11-05T11:16:44.088Z,41.89
2022-11-05T11:19:33.449Z,42.84
2022-11-05T11:22:03.694Z,43.94
2022-11-05T11:24:41.495Z,43.31
2022-11-05T11:27:18.190Z,43.63
2022-11-05T11:30:05.179Z,42.69
2022-11-05T11:32:46.160Z,43.59
2022-11-05T11:35:27.960Z,43.83
2022-11-05T11:37:57.258Z,44.68
2022-11-05T11:40:38.222Z,44.73
2022-11-05T11:43:15.164Z,44.45
2022-11-05T11:45:53.952Z,44.42
2022-11-05T11:48:40.695Z,45.27
2022-11-05T11:51:49.523Z,45.28
2022-11-05T11:54:28.840Z,45.53
2022-11-05T11:56:55.843Z,44.17
2022-11-05T11:59:53.857Z,43.81
2022-11-05T12:02:34.848Z,44.04
2022-11-05T12:05:27.633Z,43.48
2022-11-05T12:07:57.943Z,43.31
2022-11-05T12:10:42.611Z,44.17
2022-11-05T12:13:18.381Z,44.49
2022-11-05T12:15:57.639Z,44.05
2022-11-05T12:18:48.485Z,45.54
2022-11-05T12:21:51.450Z,44.59
2022-11-05T12:24:31.826Z,45.56
2022-11-05T12:27:44.131Z,45.39
2022-11-05T12:30:23.698Z,44.88
2022-11-05T12:33:25.861Z,45.02
2022-11-05T12:36:21.158Z,45.06
2022-11-05T12:39:19.175Z,44.29
2022-11-05T12:41:49.019Z,44.55
2022-11-05T12:44:40.944Z,44.17
2022-11-05T12:47:33.509Z,44.21
2022-11-05T12:50:18.025Z,44.40
2022-11-05T12:52:59.876Z,44.78
2022-11-05T12:55:33.132Z,44.50
2022-11-05T12:58:10.344Z,45.53
2022-11-05T13:00:40.691Z,45.99
2022-11-05T13:03:07.160Z,45.86
2022-11-05T13:05:42.041Z,45.79
2022-11-05T13:08:24.254Z,45.60
2022-11-05T13:11:14.185Z,44.82
2022-11-05T13:13:51.651Z,43.44
2022-11-05T13:16:47.631Z,43.33
2022-11-05T13:19:22.911Z,43.64
2022-11-05T13:21:56.550Z,43.40
2022-11-05T13:24:39.089Z,43.26
2022-11-05T13:27:19.144Z,44.80
2022-11-05T13:29:52.733Z,44.89
2022-11-05T13:32:40.824Z,44.81
2022-11-05T13:35:17.711Z,44.51
2022-11-05T13:38:08.349Z,45.05
2022-11-05T13:40:51.665Z,45.21
2022-11-05T13:43:57.800Z,45.51
2022-11-05T13:47:01.363Z,45.39
2022-11-05T13:50:06.711Z,44.11
2022-11-05T13:52:48.483Z,45.39
2022-11-05T13:55:42.279Z,44.43
2022-11-05T13:58:11.893Z,44.93
2022-11-05T14:01:13.910Z,45.37
2022-11-05T14:03:47.146Z,47.17
2022-11-05T14:06:14.247Z,47.11
2022-11-05T14:08:44.523Z,47.60
2022-11-05T14:11:37.219Z,46.06
2022-11-05T14:14:26.006Z,46.16
2022-11-05T14:17:08.277Z,45.75
2022-11-05T14:20:02.698Z,45.84
2022-11-05T14:22:33.264Z,45.39
2022-11-05T14:25:02.020Z,45.80
2022-11-05T14:27:28.483Z,46.28
2022-11-05T14:29:55.605Z,45.47
2022-11-05T14:32:23.624Z,45.44
2022-11-05T14:35:14.841Z,46.04
2022-11-05T14:37:50.287Z,45.47
2022-11-05T14:40:28.922Z,45.67
2022-11-05T14:43:01.581Z,45.66
2022-11-05T14:45:35.834Z,45.94
2022-11-05T14:48:23.359Z,46.26
2022-11-05T14:50:50.697Z,45.64
2022-11-05T14:53:39.383Z,46.13
2022-11-05T14:56:15.931Z,46.21
2022-11-05T14:58:44.166Z,46.05
2022-11-05T15:01:13.672Z,45.89
2022-11-05T15:03:45.790Z,46.49
2022-11-05T15:06:35.126Z,46.90
2022-11-05T15:09:15.707Z,47.51
2022-11-05T15:11:54.739Z,47.24
2022-11-05T15:14:28.622Z,46.79
2022-11-05T15:17:13.443Z,46.69
2022-11-05T15:19:41.308Z,46.40
2022-11-05T15:22:20.681Z,45.69
2022-11-05T15:24:47.450Z,46.60
2022-11-05T15:27:20.938Z,46.85
2022-11-05T15:29:48.008Z,46.65
2022-11-05T15:32:23.588Z,47.65
2022-11-05T15:34:52.720Z,48.42
2022-11-05T15:37:27.905Z,48.16
2022-11-05T15:39:55.738Z,48.14
2022-11-05T15:42:24.576Z,47.29
2022-11-05T15:44:53.481Z,47.32
2022-11-05T15:47:34.334Z,48.09
2022-11-05T15:50:07.472Z,47.05
2022-11-05T15:52:42.257Z,46.95
2022-11-05T15:55:19.576Z,47.81
2022-11-05T15:57:52.056Z,48.01
2022-11-05T16:00:22.346Z,47.36
2022-11-05T16:03:00.810Z,47.78
2022-11-05T16:05:30.830Z,47.28
2022-11-05T16:07:58.756Z,48.05
2022-11-05T16:10:32.434Z,47.77
2022-11-05T16:13:41.226Z,47.56
2022-11-05T16:16:13.565Z,47.62
2022-11-05T16:18:42.605Z,47.68
2022-11-05T16:21:12.588Z,47.65
2022-11-05T16:23:49.587Z,48.18
2022-11-05T16:27:01.135Z,48.20
2022-11-05T16:29:29.347Z,47.49
2022-11-05T16:31:57.683Z,48.57
2022-11-05T16:34:52.429Z,48.94
2022-11-05T16:37:23.727Z,49.04
2022-11-05T16:39:50.945Z,48.38
2022-11-05T16:42:39.778Z,48.82
2022-11-05T16:45:07.642Z,48.69
2022-11-05T16:47:34.751Z,48.28
2022-11-05T16:50:01.431Z,49.21
2022-11-05T16:52:28.146Z,49.46
2022-11-05T16:54:54.736Z,49.55
2022-11-05T16:57:28.994Z,48.79
2022-11-05T16:59:56.901Z,49.64
2022-11-05T17:02:23.820Z,49.10
2022-11-05T17:04:50.933Z,49.32
2022-11-05T17:07:17.460Z,49.72
2022-11-05T17:09:44.108Z,48.85
2022-11-05T17:12:11.247Z,49.21
2022-11-05T17:14:37.814Z,48.70
2022-11-05T17:17:04.752Z,48.77
2022-11-05T17:19:31.631Z,49.37
2022-11-05T17:21:58.202Z,50.33
2022-11-05T17:24:24.788Z,49.05
2022-11-05T17:26:51.368Z,48.31
2022-11-05T17:29:17.891Z,48.63
2022-11-05T17:31:44.843Z,48.86
2022-11-05T17:34:11.404Z,48.62
2022-11-05T17:36:37.970Z,50.05
2022-11-05T17:39:04.728Z,49.66
2022-11-05T17:41:31.351Z,49.84
2022-11-05T17:43:59.024Z,49.90
2022-11-05T17:46:25.768Z,50.22
2022-11-05T17:48:52.699Z,49.71
2022-11-05T17:51:20.281Z,49.92
2022-11-05T17:53:49.498Z,49.13
2022-11-05T17:56:28.949Z,48.73
2022-11-05T17:59:00.675Z,48.00
2022-11-05T18:01:32.822Z,48.08
2022-11-05T18:04:03.823Z,47.68
2022-11-05T18:06:34.982Z,47.99
2022-11-05T18:09:01.968Z,49.09
2022-11-05T18:11:28.596Z,49.18
2022-11-05T18:13:55.313Z,48.89
2022-11-05T18:16:21.985Z,49.20
2022-11-05T18:18:49.212Z,48.85
2022-11-05T18:21:16.043Z,49.19
2022-11-05T18:23:43.110Z,50.35
2022-11-05T18:26:11.130Z,50.02
2022-11-05T18:28:38.347Z,49.81
2022-11-05T18:31:15.285Z,50.07
2022-11-05T18:33:44.555Z,49.93
2022-11-05T18:36:19.113Z,49.91
2022-11-05T18:38:47.533Z,49.38
2022-11-05T18:41:14.711Z,49.12
2022-11-05T18:43:41.345Z,50.37
2022-11-05T18:46:08.405Z,50.84
2022-11-05T18:48:36.147Z,50.36
2022-11-05T18:51:14.940Z,50.32
2022-11-05T18:53:42.068Z,50.21
2022-11-05T18:56:14.010Z,50.53
2022-11-05T18:58:41.527Z,49.11
2022-11-05T19:01:16.336Z,50.23
2022-11-05T19:03:43.536Z,50.40
2022-11-05T19:06:10.317Z,49.58
2022-11-05T19:08:37.360Z,50.63
2022-11-05T19:11:09.806Z,50.02
2022-11-05T19:13:36.654Z,49.61
2022-11-05T19:16:10.810Z,50.15
2022-11-05T19:18:38.443Z,50.26
2022-11-05T19:21:13.751Z,50.28
2022-11-05T19:23:40.523Z,50.79
2022-11-05T19:26:09.337Z,50.95
2022-11-05T19:28:36.821Z,52.08
2022-11-05T19:31:04.075Z,51.23
2022-11-05T19:33:31.530Z,50.85
2022-11-05T19:35:59.641Z,50.50
2022-11-05T19:38:26.337Z,50.23
2022-11-05T19:40:52.998Z,50.65
2022-11-05T19:43:19.547Z,50.15
2022-11-05T19:45:46.281Z,50.22
2022-11-05T19:48:18.866Z,50.78
2022-11-05T19:50:46.165Z,50.83
2022-11-05T19:53:12.908Z,50.86
2022-11-05T19:55:40.658Z,50.14
2022-11-05T19:58:09.367Z,51.62
2022-11-05T20:00:36.933Z,50.32
2022-11-05T20:03:03.995Z,49.35
2022-11-05T20:05:32.912Z,49.50
2022-11-05T20:07:59.977Z,49.40
2022-11-05T20:10:26.662Z,49.82
2022-11-05T20:12:53.204Z,49.75
2022-11-05T20:15:19.972Z,50.18
2022-11-05T20:17:51.116Z,49.61
2022-11-05T20:20:18.573Z,49.06
2022-11-05T20:22:45.248Z,49.73
2022-11-05T20:25:12.585Z,48.89
2022-11-05T20:27:39.654Z,48.55
2022-11-05T20:30:06.870Z,49.18
2022-11-05T20:32:33.427Z,49.36
2022-11-05T20:34:59.977Z,49.31
2022-11-05T20:37:26.710Z,49.71
2022-11-05T20:39:53.394Z,49.55
2022-11-05T20:42:20.036Z,49.46
2022-11-05T20:44:46.920Z,49.33
2022-11-05T20:47:13.481Z,48.96
2022-11-05T20:49:40.158Z,48.47
2022-11-05T20:52:06.669Z,49.06
2022-11-05T20:54:33.247Z,49.60
2022-11-05T20:56:59.993Z,49.86
2022-11-05T20:59:26.619Z,49.99
2022-11-05T21:01:53.232Z,48.11
2022-11-05T21:04:20.053Z,49.14
2022-11-05T21:06:46.617Z,48.81
2022-11-05T21:09:13.213Z,49.54
2022-11-05T21:11:58.266Z,49.70
2022-11-05T21:14:24.850Z,49.71
2022-11-05T21:16:51.745Z,49.04
2022-11-05T21:19:18.420Z,48.50
2022-11-05T21:21:45.295Z,48.40
2022-11-05T21:24:11.849Z,48.77
2022-11-05T21:26:38.774Z,48.24
2022-11-05T21:29:05.339Z,48.05
2022-11-05T21:31:31.988Z,49.04
2022-11-05T21:33:58.621Z,49.11
2022-11-05T21:36:25.151Z,48.61
2022-11-05T21:38:51.664Z,48.32
2022-11-05T21:41:18.637Z,48.38
2022-11-05T21:43:45.295Z,49.21
2022-11-05T21:46:13.447Z,49.63
2022-11-05T21:48:40.041Z,50.13
2022-11-05T21:51:25.276Z,50.43
2022-11-05T21:54:10.630Z,50.08
2022-11-05T21:56:56.315Z,49.44
2022-11-05T21:59:57.104Z,48.89
2022-11-05T22:02:25.628Z,50.40
2022-11-05T22:04:54.186Z,50.54
2022-11-05T22:07:24.452Z,49.56
2022-11-05T22:09:51.168Z,50.54
2022-11-05T22:12:18.035Z,49.41
2022-11-05T22:14:44.664Z,47.98
2022-11-05T22:17:12.459Z,48.47
2022-11-05T22:19:39.687Z,49.77
2022-11-05T22:22:07.840Z,51.19
2022-11-05T22:24:35.457Z,50.45
2022-11-05T22:27:04.414Z,49.89
2022-11-05T22:29:30.982Z,50.08
2022-11-05T22:31:57.734Z,49.37
2022-11-05T22:34:25.636Z,50.01
2022-11-05T22:36:52.303Z,49.34
2022-11-05T22:39:19.321Z,49.83
2022-11-05T22:41:46.766Z,50.90
2022-11-05T22:44:14.158Z,49.64
2022-11-05T22:46:41.690Z,49.62
2022-11-05T22:49:08.336Z,49.76
2022-11-05T22:51:37.480Z,49.51
2022-11-05T22:54:05.118Z,49.88
2022-11-05T22:56:35.644Z,50.02
2022-11-05T22:59:03.206Z,49.27
2022-11-05T23:01:30.181Z,49.48
2022-11-05T23:03:58.509Z,49.86
2022-11-05T23:06:46.823Z,50.32
2022-11-05T23:09:35.539Z,49.94
2022-11-05T23:12:04.628Z,50.55
2022-11-05T23:14:31.561Z,50.12
2022-11-05T23:17:16.757Z,50.63
2022-11-05T23:20:02.020Z,50.74
2022-11-05T23:22:49.605Z,50.73
2022-11-05T23:25:20.331Z,50.30
2022-11-05T23:27:50.047Z,50.16
2022-11-05T23:30:20.007Z,51.03
2022-11-05T23:32:47.467Z,50.47
2022-11-05T23:35:14.602Z,50.23
2022-11-05T23:37:59.537Z,49.39
2022-11-05T23:40:31.815Z,50.36
2022-11-05T23:43:21.382Z,49.94
2022-11-05T23:46:17.889Z,49.39
2022-11-05T23:48:44.445Z,50.66
2022-11-05T23:51:12.298Z,50.58
2022-11-05T23:53:40.646Z,50.94
2022-11-05T23:56:10.493Z,50.64
2022-11-05T23:58:38.683Z,49.33
